Wildrose, North Dakota
Current Conditions -  °F | °C
As of 4:35 PM on Wednesday 22 Oct 2014 (Local Time) from KD60 Reporting Station
Overcast Overcast  
Wind Chill: 13°   Ceiling: 4800
Heat Index: 13°   Visibility: 10mi
Dew Point:   Wind: 21mph
Humidity: 63%   Direction: 280°W
Pressure: 29.83"   Gusts: 25mph
Location:  48.63°N, 103.18°W
Report Text: KD60 222135Z AUTO 28018G22KT 10SM OVC048 13/06 A2983 RMK AO2
Loading
Personal Weather Stations






























Interactive Weather Map
Tropical Storm Tracking
New forecast layout! Learn more

10-Day Weather Forecast

Advertisements
Track Severe Weather on mobile